createdAt,value
2023-02-14T00:02:43.652Z,13.23
2023-02-14T00:05:49.466Z,12.90
2023-02-14T00:08:54.748Z,13.20
2023-02-14T00:11:59.550Z,14.43
2023-02-14T00:15:23.198Z,13.13
2023-02-14T00:18:47.712Z,12.38
2023-02-14T00:21:52.932Z,13.50
2023-02-14T00:24:58.110Z,13.18
2023-02-14T00:28:03.133Z,13.85
2023-02-14T00:31:08.346Z,12.82
2023-02-14T00:34:15.667Z,13.43
2023-02-14T00:37:20.363Z,13.52
2023-02-14T00:40:25.205Z,13.35
2023-02-14T00:43:30.087Z,12.60
2023-02-14T00:46:36.886Z,11.75
2023-02-14T00:49:41.623Z,12.40
2023-02-14T00:52:47.166Z,11.07
2023-02-14T00:55:52.075Z,10.70
2023-02-14T00:58:56.817Z,10.77
2023-02-14T01:02:01.548Z,10.27
2023-02-14T01:05:07.660Z,10.95
2023-02-14T01:08:14.256Z,10.57
2023-02-14T01:11:21.705Z,10.43
2023-02-14T01:14:26.598Z,10.57
2023-02-14T01:17:31.324Z,10.57
2023-02-14T01:20:36.843Z,9.98
2023-02-14T01:23:42.712Z,10.77
2023-02-14T01:26:47.510Z,10.55
2023-02-14T01:29:52.273Z,10.57
2023-02-14T01:32:57.083Z,10.32
2023-02-14T01:36:03.621Z,9.98
2023-02-14T01:39:13.742Z,11.13
2023-02-14T01:42:19.089Z,10.35
2023-02-14T01:45:26.780Z,10.80
2023-02-14T01:48:31.864Z,10.63
2023-02-14T01:51:41.423Z,10.75
2023-02-14T01:54:53.982Z,10.75
2023-02-14T01:58:31.169Z,11.05
2023-02-14T02:01:35.991Z,11.73
2023-02-14T02:04:44.188Z,10.93
2023-02-14T02:07:48.960Z,11.85
2023-02-14T02:10:54.234Z,12.70
2023-02-14T02:13:59.111Z,10.85
2023-02-14T02:17:31.498Z,12.10
2023-02-14T02:21:20.341Z,12.30
2023-02-14T02:24:57.542Z,13.07
2023-02-14T02:28:27.032Z,11.82
2023-02-14T02:32:16.210Z,12.20
2023-02-14T02:35:50.728Z,13.13
2023-02-14T02:39:34.535Z,13.02
2023-02-14T02:43:17.028Z,13.10
2023-02-14T02:46:49.562Z,12.48
2023-02-14T02:50:28.349Z,14.05
2023-02-14T02:53:45.385Z,12.68
2023-02-14T02:56:55.979Z,13.00
2023-02-14T03:00:04.855Z,12.95
2023-02-14T03:03:28.704Z,12.73
2023-02-14T03:06:34.079Z,13.60
2023-02-14T03:09:41.645Z,13.68
2023-02-14T03:12:46.786Z,14.13
2023-02-14T03:16:07.594Z,13.57
2023-02-14T03:19:32.757Z,15.05
2023-02-14T03:23:03.252Z,13.85
2023-02-14T03:26:22.419Z,13.43
2023-02-14T03:29:46.543Z,15.32
2023-02-14T03:33:00.961Z,14.48
2023-02-14T03:36:15.142Z,14.32
2023-02-14T03:40:00.749Z,13.77
2023-02-14T03:43:22.457Z,14.30
2023-02-14T03:46:45.074Z,14.32
2023-02-14T03:50:13.004Z,15.13
2023-02-14T03:53:23.000Z,13.98
2023-02-14T03:56:37.887Z,15.02
2023-02-14T03:59:43.530Z,15.75
2023-02-14T04:02:55.117Z,14.80
2023-02-14T04:06:00.533Z,17.30
2023-02-14T04:09:05.444Z,15.02
2023-02-14T04:12:10.894Z,14.88
2023-02-14T04:15:16.728Z,15.90
2023-02-14T04:18:40.013Z,15.07
2023-02-14T04:21:44.744Z,15.73
2023-02-14T04:24:49.512Z,15.98
2023-02-14T04:27:54.460Z,16.67
2023-02-14T04:31:04.945Z,16.00
2023-02-14T04:34:09.813Z,23.30
2023-02-14T04:37:17.732Z,40.03
2023-02-14T04:40:22.587Z,45.40
2023-02-14T04:43:27.733Z,24.08
2023-02-14T04:46:32.995Z,30.52
2023-02-14T04:49:37.711Z,27.20
2023-02-14T04:52:42.598Z,19.92
2023-02-14T04:55:51.044Z,19.17
2023-02-14T04:58:55.845Z,16.73
2023-02-14T05:02:00.755Z,19.08
2023-02-14T05:05:06.052Z,19.48
2023-02-14T05:08:11.205Z,19.58
2023-02-14T05:11:16.001Z,18.02
2023-02-14T05:14:22.644Z,17.70
2023-02-14T05:17:27.501Z,14.80
2023-02-14T05:20:32.549Z,16.08
2023-02-14T05:23:37.704Z,14.48
2023-02-14T05:26:42.590Z,18.70
2023-02-14T05:29:47.812Z,15.38
2023-02-14T05:32:53.325Z,14.80
2023-02-14T05:36:02.660Z,15.18
2023-02-14T05:39:07.628Z,13.60
2023-02-14T05:42:12.538Z,13.27
2023-02-14T05:45:17.573Z,14.23
2023-02-14T05:48:22.324Z,12.88
2023-02-14T05:51:27.635Z,11.98
2023-02-14T05:54:32.580Z,12.05
2023-02-14T05:57:37.533Z,11.82
2023-02-14T06:00:42.836Z,11.25
2023-02-14T06:03:47.568Z,11.68
2023-02-14T06:06:52.556Z,12.30
2023-02-14T06:09:57.467Z,10.95
2023-02-14T06:13:02.551Z,12.00
2023-02-14T06:16:07.456Z,11.27
2023-02-14T06:19:12.260Z,12.00
2023-02-14T06:22:16.976Z,10.50
2023-02-14T06:25:23.472Z,10.20
2023-02-14T06:28:28.157Z,10.93
2023-02-14T06:31:33.207Z,11.60
2023-02-14T06:34:39.801Z,10.80
2023-02-14T06:37:45.351Z,10.10
2023-02-14T06:40:50.357Z,9.57
2023-02-14T06:43:55.197Z,10.35
2023-02-14T06:47:00.030Z,9.40
2023-02-14T06:50:05.704Z,8.55
2023-02-14T06:53:11.480Z,9.88
2023-02-14T06:56:16.477Z,8.95
2023-02-14T06:59:21.997Z,8.75
2023-02-14T07:02:26.594Z,8.27
2023-02-14T07:05:31.977Z,8.93
2023-02-14T07:08:36.914Z,9.35
2023-02-14T07:11:41.667Z,8.68
2023-02-14T07:14:46.551Z,9.75
2023-02-14T07:17:51.412Z,9.00
2023-02-14T07:20:56.571Z,10.93
2023-02-14T07:24:01.086Z,9.68
2023-02-14T07:27:05.885Z,10.57
2023-02-14T07:30:11.754Z,10.65
2023-02-14T07:33:16.472Z,11.43
2023-02-14T07:36:21.359Z,29.88
2023-02-14T07:39:26.049Z,12.80
2023-02-14T07:42:30.980Z,18.42
2023-02-14T07:45:35.856Z,11.05
2023-02-14T07:48:41.068Z,12.18
2023-02-14T07:51:46.280Z,16.35
2023-02-14T07:54:51.186Z,13.52
2023-02-14T07:57:56.178Z,12.70
2023-02-14T08:01:01.464Z,11.43
2023-02-14T08:04:06.336Z,13.23
2023-02-14T08:07:11.114Z,14.55
2023-02-14T08:10:16.554Z,11.65
2023-02-14T08:13:22.156Z,13.77
2023-02-14T08:16:27.271Z,12.23
2023-02-14T08:19:32.131Z,11.57
2023-02-14T08:22:36.930Z,11.68
2023-02-14T08:25:41.780Z,13.32
2023-02-14T08:28:46.544Z,14.38
2023-02-14T08:31:52.844Z,13.02
2023-02-14T08:34:57.737Z,14.77
2023-02-14T08:38:02.885Z,13.45
2023-02-14T08:41:09.118Z,13.13
2023-02-14T08:44:16.401Z,17.50
2023-02-14T08:47:21.184Z,12.52
2023-02-14T08:50:26.324Z,10.95
2023-02-14T08:53:31.063Z,12.38
2023-02-14T08:56:36.490Z,11.88
2023-02-14T08:59:41.686Z,12.68
2023-02-14T09:02:51.649Z,11.98
2023-02-14T09:05:56.656Z,12.65
2023-02-14T09:09:02.576Z,13.43
2023-02-14T09:12:09.848Z,11.70
2023-02-14T09:15:14.583Z,13.32
2023-02-14T09:18:19.257Z,11.13
2023-02-14T09:21:26.900Z,12.68
2023-02-14T09:24:33.628Z,12.68
2023-02-14T09:27:39.491Z,18.00
2023-02-14T09:30:44.239Z,19.42
2023-02-14T09:34:09.268Z,16.05
2023-02-14T09:37:14.489Z,14.15
2023-02-14T09:40:20.292Z,16.30
2023-02-14T09:43:33.189Z,15.73
2023-02-14T09:46:45.694Z,14.48
2023-02-14T09:49:50.942Z,14.43
2023-02-14T09:53:00.339Z,14.25
2023-02-14T09:56:42.768Z,15.07
2023-02-14T10:00:16.012Z,14.00
2023-02-14T10:03:51.507Z,14.63
2023-02-14T10:07:21.038Z,14.68
2023-02-14T10:10:42.631Z,14.23
2023-02-14T10:14:02.222Z,13.18
2023-02-14T10:17:16.314Z,12.43
2023-02-14T10:20:31.241Z,14.32
2023-02-14T10:23:41.305Z,13.55
2023-02-14T10:26:46.454Z,12.05
2023-02-14T10:29:51.260Z,11.30
2023-02-14T10:33:16.536Z,11.88
2023-02-14T10:37:16.331Z,12.98
2023-02-14T10:40:42.703Z,11.75
2023-02-14T10:44:13.420Z,12.13
2023-02-14T10:47:51.555Z,12.75
2023-02-14T10:51:17.807Z,29.42
2023-02-14T10:54:28.910Z,24.98
2023-02-14T10:57:41.997Z,21.45
2023-02-14T11:01:13.213Z,39.40
2023-02-14T11:04:20.427Z,22.80
2023-02-14T11:07:25.580Z,20.92
2023-02-14T11:10:33.257Z,10.80
2023-02-14T11:13:41.692Z,10.60
2023-02-14T11:16:47.551Z,12.02
2023-02-14T11:20:18.428Z,14.43
2023-02-14T11:23:24.811Z,12.85
2023-02-14T11:26:32.636Z,10.07
2023-02-14T11:29:52.203Z,10.82
2023-02-14T11:32:57.329Z,11.75
2023-02-14T11:36:03.065Z,10.98
2023-02-14T11:39:22.282Z,10.35
2023-02-14T11:42:45.637Z,12.00
2023-02-14T11:46:17.006Z,13.02
2023-02-14T11:49:34.916Z,10.02
2023-02-14T11:52:51.358Z,11.95
2023-02-14T11:55:58.816Z,10.50
2023-02-14T11:59:05.584Z,11.15
2023-02-14T12:02:39.900Z,11.20
2023-02-14T12:05:48.827Z,10.75
2023-02-14T12:09:31.480Z,12.02
2023-02-14T12:12:37.336Z,10.45
2023-02-14T12:15:56.792Z,10.65
2023-02-14T12:19:11.512Z,11.90
2023-02-14T12:22:21.825Z,10.00
2023-02-14T12:25:43.118Z,8.88
2023-02-14T12:28:55.834Z,15.38
2023-02-14T12:32:21.357Z,11.63
2023-02-14T12:35:52.047Z,15.07
2023-02-14T12:39:03.517Z,14.18
2023-02-14T12:42:32.857Z,16.27
2023-02-14T12:46:02.121Z,17.67
2023-02-14T12:49:25.437Z,16.92
2023-02-14T12:52:52.736Z,11.13
2023-02-14T12:56:13.279Z,10.32
2023-02-14T13:00:12.624Z,12.05
2023-02-14T13:04:00.396Z,9.85
2023-02-14T13:07:23.741Z,11.23
2023-02-14T13:10:46.215Z,10.05
2023-02-14T13:14:22.211Z,9.55
2023-02-14T13:17:47.589Z,11.45
2023-02-14T13:20:57.578Z,12.10
2023-02-14T13:24:16.170Z,9.40
2023-02-14T13:27:34.216Z,9.95
2023-02-14T13:30:42.198Z,9.23
2023-02-14T13:34:01.001Z,10.88
2023-02-14T13:37:11.632Z,10.05
2023-02-14T13:40:21.023Z,13.02
2023-02-14T13:43:53.393Z,9.98
2023-02-14T13:46:58.481Z,11.63
2023-02-14T13:50:05.363Z,14.73
2023-02-14T13:53:14.075Z,9.73
2023-02-14T13:56:19.113Z,10.80
2023-02-14T13:59:27.917Z,10.30
2023-02-14T14:02:50.610Z,10.07
2023-02-14T14:06:08.801Z,12.10
2023-02-14T14:09:42.197Z,12.38
2023-02-14T14:12:47.368Z,11.13
2023-02-14T14:16:21.334Z,11.32
2023-02-14T14:19:26.227Z,10.38
2023-02-14T14:22:31.041Z,10.70
2023-02-14T14:25:40.946Z,10.68
2023-02-14T14:28:46.235Z,10.70
2023-02-14T14:31:56.106Z,10.90
2023-02-14T14:35:18.815Z,9.75
2023-02-14T14:38:25.172Z,10.10
2023-02-14T14:41:32.511Z,9.82
2023-02-14T14:44:47.512Z,9.85
2023-02-14T14:47:56.332Z,10.90
2023-02-14T14:51:01.632Z,10.77
2023-02-14T14:54:12.851Z,10.77
2023-02-14T14:57:18.302Z,12.43
2023-02-14T15:00:38.446Z,12.65
2023-02-14T15:03:43.428Z,12.98
2023-02-14T15:06:49.704Z,12.45
2023-02-14T15:09:54.428Z,11.32
2023-02-14T15:13:18.021Z,11.98
2023-02-14T15:16:36.015Z,11.75
2023-02-14T15:19:44.401Z,12.55
2023-02-14T15:22:51.354Z,11.77
2023-02-14T15:25:56.354Z,10.93
2023-02-14T15:29:05.676Z,10.55
2023-02-14T15:32:11.322Z,12.23
2023-02-14T15:35:21.864Z,11.10
2023-02-14T15:38:27.975Z,10.45
2023-02-14T15:41:33.481Z,9.52
2023-02-14T15:44:38.777Z,9.40
2023-02-14T15:47:47.741Z,10.10
2023-02-14T15:50:56.688Z,10.73
2023-02-14T15:54:23.237Z,9.98
2023-02-14T15:57:29.859Z,11.32
2023-02-14T16:00:35.614Z,12.38
2023-02-14T16:03:43.741Z,13.18
2023-02-14T16:07:06.648Z,13.50
2023-02-14T16:10:25.452Z,12.13
2023-02-14T16:13:36.796Z,11.73
2023-02-14T16:17:05.092Z,12.32
2023-02-14T16:20:35.133Z,13.65
2023-02-14T16:23:41.888Z,12.32
2023-02-14T16:26:47.171Z,13.35
2023-02-14T16:29:52.114Z,13.77
2023-02-14T16:32:57.162Z,13.65
2023-02-14T16:36:15.510Z,13.75
2023-02-14T16:39:26.240Z,12.95
2023-02-14T16:42:32.666Z,13.07
2023-02-14T16:45:37.752Z,20.27
2023-02-14T16:48:43.527Z,13.98
2023-02-14T16:51:48.362Z,14.23
2023-02-14T16:54:53.488Z,14.18
2023-02-14T16:57:59.328Z,14.25
2023-02-14T17:01:04.443Z,15.68
2023-02-14T17:04:10.047Z,15.80
2023-02-14T17:07:15.986Z,14.85
2023-02-14T17:10:20.925Z,16.27
2023-02-14T17:13:27.179Z,15.25
2023-02-14T17:16:32.690Z,14.40
2023-02-14T17:19:37.628Z,14.98
2023-02-14T17:22:42.604Z,14.90
2023-02-14T17:25:47.581Z,15.35
2023-02-14T17:28:52.607Z,14.05
2023-02-14T17:31:57.471Z,14.57
2023-02-14T17:35:04.172Z,16.45
2023-02-14T17:38:09.571Z,13.77
2023-02-14T17:41:23.457Z,13.85
2023-02-14T17:44:32.306Z,14.25
2023-02-14T17:47:39.542Z,14.00
2023-02-14T17:50:44.574Z,13.20
2023-02-14T17:53:49.887Z,14.00
2023-02-14T17:56:54.827Z,13.75
2023-02-14T17:59:59.793Z,12.95
2023-02-14T18:03:04.695Z,14.23
2023-02-14T18:06:11.307Z,14.00
2023-02-14T18:09:15.923Z,14.45
2023-02-14T18:12:20.665Z,13.80
2023-02-14T18:15:27.371Z,16.35
2023-02-14T18:18:32.680Z,13.82
2023-02-14T18:21:40.066Z,13.38
2023-02-14T18:24:45.120Z,13.07
2023-02-14T18:27:49.977Z,13.63
2023-02-14T18:30:57.021Z,13.20
2023-02-14T18:34:02.630Z,13.32
2023-02-14T18:37:07.271Z,11.52
2023-02-14T18:40:19.960Z,13.63
2023-02-14T18:43:24.982Z,12.77
2023-02-14T18:46:33.853Z,13.30
2023-02-14T18:49:38.345Z,14.65
2023-02-14T18:52:43.199Z,13.93
2023-02-14T18:55:48.027Z,12.65
2023-02-14T18:58:59.378Z,13.90
2023-02-14T19:02:04.270Z,14.68
2023-02-14T19:05:09.893Z,13.85
2023-02-14T19:08:15.098Z,14.70
2023-02-14T19:11:27.290Z,14.43
2023-02-14T19:14:32.550Z,15.43
2023-02-14T19:17:38.290Z,14.48
2023-02-14T19:20:43.427Z,14.68
2023-02-14T19:23:49.465Z,14.93
2023-02-14T19:26:56.078Z,14.10
2023-02-14T19:30:01.924Z,15.63
2023-02-14T19:33:06.897Z,16.27
2023-02-14T19:36:15.594Z,17.00
2023-02-14T19:39:22.818Z,16.88
2023-02-14T19:42:27.883Z,17.17
2023-02-14T19:45:32.779Z,18.25
2023-02-14T19:48:37.624Z,16.95
2023-02-14T19:51:42.672Z,17.67
2023-02-14T19:54:47.693Z,18.15
2023-02-14T19:57:52.280Z,18.52
2023-02-14T20:00:59.592Z,18.05
2023-02-14T20:04:06.632Z,18.70
2023-02-14T20:07:11.898Z,18.73
2023-02-14T20:10:17.044Z,17.73
2023-02-14T20:13:22.057Z,18.58
2023-02-14T20:16:29.069Z,18.50
2023-02-14T20:19:36.914Z,17.80
2023-02-14T20:22:41.870Z,19.20
2023-02-14T20:25:46.620Z,18.77
2023-02-14T20:28:53.088Z,20.38
2023-02-14T20:32:01.325Z,20.60
2023-02-14T20:35:06.265Z,21.50
2023-02-14T20:38:11.804Z,23.38
2023-02-14T20:41:17.060Z,22.45
2023-02-14T20:44:22.600Z,25.95
2023-02-14T20:47:28.630Z,26.15
2023-02-14T20:50:33.782Z,25.98
2023-02-14T20:53:39.947Z,26.17
2023-02-14T20:56:45.982Z,26.65
2023-02-14T20:59:50.685Z,25.50
2023-02-14T21:02:57.179Z,22.75
2023-02-14T21:06:06.697Z,22.33
2023-02-14T21:09:11.529Z,20.65
2023-02-14T21:12:16.328Z,20.77
2023-02-14T21:15:21.793Z,19.05
2023-02-14T21:18:26.717Z,19.95
2023-02-14T21:21:38.296Z,19.52
2023-02-14T21:24:43.463Z,18.42
2023-02-14T21:27:48.261Z,18.50
2023-02-14T21:30:53.589Z,18.48
2023-02-14T21:34:00.257Z,16.15
2023-02-14T21:37:05.403Z,14.95
2023-02-14T21:40:11.040Z,14.85
2023-02-14T21:43:15.882Z,14.23
2023-02-14T21:46:31.178Z,14.20
2023-02-14T21:49:54.802Z,14.45
2023-02-14T21:52:59.649Z,13.73
2023-02-14T21:56:06.809Z,13.95
2023-02-14T21:59:11.914Z,13.48
2023-02-14T22:02:16.409Z,15.13
2023-02-14T22:05:21.337Z,15.52
2023-02-14T22:08:26.263Z,16.15
2023-02-14T22:11:31.124Z,16.35
2023-02-14T22:14:35.874Z,16.60
2023-02-14T22:17:40.608Z,16.15
2023-02-14T22:20:46.110Z,16.98
2023-02-14T22:23:51.160Z,16.05
2023-02-14T22:26:56.486Z,15.82
2023-02-14T22:30:01.299Z,15.63
2023-02-14T22:33:06.185Z,15.63
2023-02-14T22:36:11.296Z,14.70
2023-02-14T22:39:16.933Z,14.98
2023-02-14T22:42:21.995Z,14.68
2023-02-14T22:45:26.904Z,14.10
2023-02-14T22:48:33.823Z,14.55
2023-02-14T22:51:42.907Z,15.10
2023-02-14T22:54:48.196Z,14.95
2023-02-14T22:57:52.994Z,14.70
2023-02-14T23:00:57.739Z,15.13
2023-02-14T23:04:03.955Z,14.95
2023-02-14T23:07:11.246Z,14.73
2023-02-14T23:10:16.415Z,14.68
2023-02-14T23:13:40.488Z,14.43
2023-02-14T23:17:04.896Z,14.70
2023-02-14T23:20:28.524Z,14.68
2023-02-14T23:23:33.824Z,12.80
2023-02-14T23:26:38.656Z,14.60
2023-02-14T23:29:43.480Z,13.50
2023-02-14T23:32:48.285Z,13.65
2023-02-14T23:35:53.168Z,14.55
2023-02-14T23:38:58.165Z,15.20
2023-02-14T23:42:05.458Z,13.98
2023-02-14T23:45:28.899Z,14.30
2023-02-14T23:48:33.675Z,13.88
2023-02-14T23:51:38.673Z,14.38
2023-02-14T23:54:43.664Z,15.80
2023-02-14T23:57:48.493Z,14.57
